| time (UTC) | temp F | wind direction | speed MPH | gust MPH | rain 1hr in | rain 24hr in | rain mn in | humidity % | barometer mb |
| 20260510104600 | 33 | 292 | 1.0 | 7.0 | 0.00 | 0.00 | 0.00 | 94 | 1017.2 |
| 20260510103043 | 33 | 338 | 1.0 | 4.0 | 0.00 | 0.00 | 0.00 | 94 | 1016.9 |
| 20260510101540 | 33 | 287 | 2.0 | 7.0 | 0.00 | 0.00 | 0.00 | 94 | 1016.9 |
| 20260510100040 | 32 | 299 | 1.0 | 6.0 | 0.00 | 0.00 | 0.00 | 94 | 1016.6 |
| 20260510094636 | 32 | 294 | 2.0 | 4.0 | 0.00 | 0.00 | 0.00 | 94 | 1016.6 |
| 20260510093036 | 32 | 325 | 1.0 | 7.0 | 0.00 | 0.00 | 0.00 | 94 | 1016.4 |
| 20260510091549 | 32 | 298 | 1.0 | 3.0 | 0.00 | 0.00 | 0.00 | 94 | 1016.2 |
| 20260510090033 | 32 | 302 | 2.0 | 7.0 | 0.00 | 0.00 | 0.00 | 94 | 1016.0 |
| 20260510084531 | 32 | 337 | 1.0 | 4.0 | 0.00 | 0.00 | 0.00 | 94 | 1015.8 |
| 20260510083029 | 32 | 301 | 1.0 | 4.0 | 0.00 | 0.00 | 0.00 | 93 | 1015.7 |
| 20260510081536 | 33 | 268 | 1.0 | 7.0 | 0.00 | 0.00 | 0.00 | 93 | 1015.7 |
| 20260510080028 | 33 | 286 | 1.0 | 5.0 | 0.00 | 0.00 | 0.00 | 93 | 1015.5 |
| 20260510074530 | 33 | 284 | 1.0 | 4.0 | 0.00 | 0.00 | 0.00 | 93 | 1015.4 |
| 20260510073035 | 33 | 276 | 2.0 | 6.0 | 0.00 | 0.00 | 0.00 | 93 | 1015.3 |
| 20260510071534 | 33 | 291 | 2.0 | 6.0 | 0.00 | 0.00 | 0.00 | 93 | 1015.4 |
| 20260510070027 | 33 | 287 | 1.0 | 4.0 | 0.00 | 0.00 | 0.00 | 93 | 1015.2 |
| 20260510064546 | 33 | 276 | 3.0 | 6.0 | 0.00 | 0.00 | 0.00 | 93 | 1015.1 |
| 20260510063028 | 33 | 260 | 4.0 | 10.0 | 0.00 | 0.00 | 0.00 | 93 | 1015.0 |
| 20260510061533 | 33 | 275 | 2.0 | 6.0 | 0.00 | 0.00 | 0.00 | 94 | 1015.0 |
| 20260510060031 | 33 | 294 | 0.0 | 4.0 | 0.00 | 0.00 | 0.00 | 94 | 1014.9 |
| 20260510054521 | 33 | 250 | 2.0 | 3.0 | 0.00 | 0.00 | 0.00 | 94 | 1014.7 |
| 20260510053018 | 33 | 250 | 0.0 | 2.0 | 0.00 | 0.00 | 0.00 | 93 | 1014.4 |
| 20260510051516 | 33 | 325 | 1.0 | 6.0 | 0.00 | 0.00 | 0.00 | 93 | 1014.4 |
| 20260510050015 | 33 | 287 | 5.0 | 9.0 | 0.00 | 0.00 | 0.00 | 92 | 1014.4 |
| 20260510044511 | 34 | 300 | 3.0 | 9.0 | 0.00 | 0.00 | 0.00 | 93 | 1014.4 |
| 20260510043010 | 33 | 300 | 2.0 | 7.0 | 0.00 | 0.00 | 0.00 | 93 | 1014.6 |
| 20260510041507 | 33 | 294 | 1.0 | 4.0 | 0.00 | 0.00 | 0.00 | 92 | 1014.2 |
| 20260510040006 | 33 | 302 | 0.0 | 3.0 | 0.00 | 0.00 | 0.00 | 91 | 1014.1 |
| 20260510034504 | 34 | 311 | 1.0 | 3.0 | 0.00 | 0.00 | 0.00 | 90 | 1014.0 |
| 20260510033002 | 35 | 284 | 2.0 | 6.0 | 0.00 | 0.00 | 0.00 | 90 | 1014.0 |
| 20260510031609 | 35 | 335 | 1.0 | 12.0 | 0.00 | 0.00 | 0.00 | 88 | 1013.8 |
| 20260510030107 | 35 | 319 | 2.0 | 7.0 | 0.00 | 0.00 | 0.00 | 87 | 1014.1 |
| 20260510024600 | 35 | 294 | 2.0 | 4.0 | 0.00 | 0.00 | 0.00 | 87 | 1013.9 |
| 20260510023059 | 35 | 301 | 1.0 | 5.0 | 0.00 | 0.00 | 0.00 | 87 | 1013.7 |
| 20260510021558 | 36 | 311 | 2.0 | 6.0 | 0.00 | 0.00 | 0.00 | 86 | 1013.5 |
| 20260510020055 | 36 | 290 | 3.0 | 7.0 | 0.00 | 0.00 | 0.00 | 85 | 1013.4 |
| 20260510014552 | 36 | 336 | 2.0 | 6.0 | 0.00 | 0.00 | 0.00 | 85 | 1013.1 |
| 20260510013053 | 37 | 327 | 3.0 | 10.0 | 0.00 | 0.00 | 0.00 | 83 | 1012.7 |
| 20260510011548 | 38 | 316 | 6.0 | 20.0 | 0.00 | 0.00 | 0.00 | 78 | 1012.8 |
| 20260510010045 | 39 | 355 | 5.0 | 12.0 | 0.00 | 0.00 | 0.00 | 69 | 1011.9 |
| 20260510004545 | 39 | 315 | 2.0 | 8.0 | 0.00 | 0.00 | 0.00 | 73 | 1011.7 |
| 20260510003054 | 40 | 302 | 2.0 | 8.0 | 0.00 | 0.00 | 0.00 | 74 | 1011.6 |
| 20260510001544 | 40 | 340 | 2.0 | 5.0 | 0.00 | 0.00 | 0.00 | 77 | 1011.4 |
| 20260510000043 | 40 | 291 | 2.0 | 17.0 | 0.00 | 0.00 | 0.00 | 78 | 1011.6 |
| 20260509234557 | 41 | 321 | 4.0 | 12.0 | 0.00 | 0.00 | 0.00 | 63 | 1011.2 |
| 20260509233045 | 42 | 297 | 2.0 | 11.0 | 0.00 | 0.00 | 0.00 | 66 | 1011.0 |
| 20260509231557 | 41 | 350 | 4.0 | 14.0 | 0.00 | 0.00 | 0.00 | 68 | 1011.0 |
| 20260509230037 | 43 | 348 | 8.0 | 20.0 | 0.00 | 0.00 | 0.00 | 61 | 1011.0 |
| 20260509224534 | 45 | 302 | 4.0 | 10.0 | 0.00 | 0.00 | 0.00 | 52 | 1010.1 |
| 20260509223036 | 44 | 301 | 5.0 | 14.0 | 0.00 | 0.00 | 0.00 | 54 | 1010.0 |
| 20260509221532 | 45 | 323 | 4.0 | 10.0 | 0.00 | 0.00 | 0.00 | 52 | 1010.0 |
| 20260509220037 | 45 | 282 | 6.0 | 14.0 | 0.00 | 0.00 | 0.00 | 53 | 1010.0 |
| 20260509214533 | 46 | 298 | 11.0 | 21.0 | 0.00 | 0.00 | 0.00 | 51 | 1009.8 |
| 20260509213032 | 44 | 309 | 7.0 | 18.0 | 0.00 | 0.00 | 0.00 | 54 | 1009.7 |
| 20260509211528 | 44 | 282 | 7.0 | 16.0 | 0.00 | 0.00 | 0.00 | 56 | 1009.6 |
| 20260509210029 | 44 | 308 | 7.0 | 17.0 | 0.00 | 0.00 | 0.00 | 56 | 1009.5 |
| 20260509204527 | 43 | 282 | 5.0 | 14.0 | 0.00 | 0.00 | 0.00 | 59 | 1009.3 |
| 20260509203033 | 42 | 331 | 6.0 | 16.0 | 0.00 | 0.00 | 0.00 | 59 | 1009.2 |
| 20260509201521 | 43 | 331 | 7.0 | 15.0 | 0.00 | 0.00 | 0.00 | 59 | 1009.0 |
| 20260509200021 | 42 | 13 | 7.0 | 13.0 | 0.00 | 0.00 | 0.00 | 61 | 1009.0 |
| 20260509194521 | 41 | 355 | 7.0 | 16.0 | 0.00 | 0.00 | 0.00 | 60 | 1009.0 |
| 20260509193020 | 42 | 321 | 4.0 | 13.0 | 0.00 | 0.00 | 0.00 | 62 | 1008.6 |
| 20260509191517 | 42 | 281 | 5.0 | 12.0 | 0.00 | 0.00 | 0.00 | 62 | 1008.3 |
| 20260509190018 | 42 | 303 | 6.0 | 16.0 | 0.00 | 0.00 | 0.00 | 61 | 1007.9 |
| 20260509184526 | 43 | 274 | 6.0 | 16.0 | 0.00 | 0.00 | 0.00 | 60 | 1007.7 |
| 20260509183020 | 41 | 342 | 4.0 | 11.0 | 0.00 | 0.00 | 0.00 | 62 | 1007.7 |
| 20260509181516 | 41 | 331 | 6.0 | 17.0 | 0.00 | 0.00 | 0.00 | 61 | 1007.6 |
| 20260509180017 | 43 | 5 | 4.0 | 11.0 | 0.00 | 0.00 | 0.00 | 55 | 1007.3 |
| 20260509174507 | 42 | 325 | 7.0 | 16.0 | 0.00 | 0.00 | 0.00 | 56 | 1007.2 |
| 20260509173008 | 41 | 345 | 6.0 | 13.0 | 0.00 | 0.00 | 0.00 | 58 | 1007.1 |
| 20260509171503 | 41 | 298 | 5.0 | 15.0 | 0.00 | 0.00 | 0.00 | 58 | 1006.8 |
| 20260509170002 | 41 | 296 | 5.0 | 14.0 | 0.00 | 0.00 | 0.00 | 59 | 1006.7 |
| 20260509164502 | 41 | 321 | 4.0 | 14.0 | 0.00 | 0.00 | 0.00 | 61 | 1006.4 |
| 20260509163105 | 41 | 355 | 5.0 | 12.0 | 0.00 | 0.00 | 0.00 | 62 | 1006.1 |
| 20260509161559 | 40 | 305 | 5.0 | 16.0 | 0.00 | 0.00 | 0.00 | 64 | 1006.0 |
| 20260509160057 | 39 | 350 | 6.0 | 19.0 | 0.00 | 0.00 | 0.00 | 64 | 1005.8 |
| 20260509154607 | 40 | 12 | 10.0 | 17.0 | 0.00 | 0.00 | 0.00 | 64 | 1005.6 |
| 20260509153053 | 41 | 332 | 7.0 | 16.0 | 0.00 | 0.00 | 0.00 | 66 | 1005.6 |
| 20260509151553 | 40 | 328 | 5.0 | 16.0 | 0.00 | 0.00 | 0.00 | 68 | 1005.3 |
| 20260509150106 | 40 | 327 | 8.0 | 18.0 | 0.00 | 0.00 | 0.00 | 68 | 1005.1 |
| 20260509144553 | 40 | 322 | 6.0 | 18.0 | 0.00 | 0.00 | 0.00 | 69 | 1004.7 |
| 20260509143052 | 40 | 316 | 7.0 | 16.0 | 0.00 | 0.00 | 0.00 | 67 | 1004.5 |
| 20260509141544 | 40 | 348 | 7.0 | 17.0 | 0.00 | 0.00 | 0.00 | 67 | 1004.4 |
| 20260509140043 | 39 | 347 | 4.0 | 14.0 | 0.00 | 0.00 | 0.00 | 67 | 1004.3 |
| 20260509134540 | 39 | 305 | 8.0 | 18.0 | 0.00 | 0.00 | 0.00 | 65 | 1004.0 |
| 20260509133042 | 40 | 319 | 6.0 | 16.0 | 0.00 | 0.00 | 0.00 | 64 | 1003.8 |
| 20260509131535 | 39 | 340 | 6.0 | 19.0 | 0.00 | 0.00 | 0.00 | 65 | 1003.6 |
| 20260509130032 | 39 | 342 | 4.0 | 15.0 | 0.00 | 0.00 | 0.00 | 64 | 1003.2 |
| 20260509124538 | 38 | 311 | 5.0 | 12.0 | 0.00 | 0.00 | 0.00 | 64 | 1002.8 |
| 20260509123026 | 38 | 300 | 4.0 | 13.0 | 0.00 | 0.00 | 0.00 | 66 | 1002.5 |
| 20260509121534 | 37 | 302 | 4.0 | 11.0 | 0.00 | 0.00 | 0.00 | 67 | 1002.6 |
| 20260509120021 | 36 | 299 | 2.0 | 9.0 | 0.00 | 0.00 | 0.00 | 67 | 1002.4 |
| 20260509114537 | 36 | 309 | 4.0 | 10.0 | 0.00 | 0.00 | 0.00 | 66 | 1002.2 |
| 20260509113015 | 36 | 300 | 2.0 | 9.0 | 0.00 | 0.00 | 0.00 | 68 | 1001.9 |
| 20260509111512 | 35 | 296 | 2.0 | 4.0 | 0.00 | 0.00 | 0.00 | 68 | 1001.8 |
| 20260509110012 | 36 | 338 | 1.0 | 5.0 | 0.00 | 0.00 | 0.00 | 67 | 1001.8 |